createdAt,value
2018-07-08T00:00:50.457Z,14.89
2018-07-08T00:02:50.652Z,14.89
2018-07-08T00:04:50.134Z,14.89
2018-07-08T00:06:50.471Z,14.92
2018-07-08T00:08:50.555Z,14.88
2018-07-08T00:10:50.689Z,14.87
2018-07-08T00:12:50.847Z,14.84
2018-07-08T00:14:50.038Z,14.84
2018-07-08T00:16:50.275Z,14.75
2018-07-08T00:18:50.494Z,14.75
2018-07-08T00:20:50.630Z,14.71
2018-07-08T00:22:50.744Z,14.69
2018-07-08T00:24:49.974Z,14.69
2018-07-08T00:26:50.375Z,14.69
2018-07-08T00:28:50.522Z,14.70
2018-07-08T00:30:50.770Z,14.69
2018-07-08T00:32:50.026Z,14.81
2018-07-08T00:34:50.441Z,14.90
2018-07-08T00:36:50.834Z,14.90
2018-07-08T00:38:49.956Z,14.84
2018-07-08T00:40:50.195Z,14.74
2018-07-08T00:42:50.503Z,14.71
2018-07-08T00:44:50.609Z,14.65
2018-07-08T00:46:50.123Z,14.65
2018-07-08T00:48:50.270Z,14.53
2018-07-08T00:50:50.405Z,14.53
2018-07-08T00:52:50.523Z,14.50
2018-07-08T00:54:50.658Z,14.41
2018-07-08T00:56:50.031Z,14.41
2018-07-08T00:58:50.164Z,14.33
2018-07-08T01:00:50.402Z,14.29
2018-07-08T01:02:50.548Z,14.24
2018-07-08T01:04:49.985Z,14.18
2018-07-08T01:06:50.156Z,14.16
2018-07-08T01:08:51.127Z,14.11
2018-07-08T01:10:50.437Z,14.07
2018-07-08T01:12:50.607Z,13.99
2018-07-08T01:14:50.723Z,13.95
2018-07-08T01:16:49.990Z,13.90
2018-07-08T01:18:50.103Z,13.85
2018-07-08T01:20:50.299Z,13.80
2018-07-08T01:22:50.489Z,13.75
2018-07-08T01:24:50.675Z,13.74
2018-07-08T01:26:50.037Z,13.71
2018-07-08T01:28:50.173Z,13.72
2018-07-08T01:30:50.352Z,13.70
2018-07-08T01:32:50.598Z,13.68
2018-07-08T01:34:50.261Z,13.63
2018-07-08T01:36:50.689Z,13.63
2018-07-08T01:38:50.811Z,13.62
2018-07-08T01:40:50.067Z,13.61
2018-07-08T01:42:50.413Z,13.59
2018-07-08T01:44:50.571Z,13.57
2018-07-08T01:46:49.975Z,13.54
2018-07-08T01:48:50.080Z,13.52
2018-07-08T01:50:50.329Z,13.48
2018-07-08T01:52:50.583Z,13.45
2018-07-08T01:54:50.758Z,13.37
2018-07-08T01:56:50.227Z,13.32
2018-07-08T01:58:50.349Z,13.30
2018-07-08T02:00:50.563Z,13.28
2018-07-08T02:02:50.709Z,13.27
2018-07-08T02:04:50.109Z,13.24
2018-07-08T02:06:50.513Z,13.21
2018-07-08T02:08:50.856Z,13.14
2018-07-08T02:10:50.100Z,13.11
2018-07-08T02:12:50.226Z,13.10
2018-07-08T02:14:50.415Z,13.11
2018-07-08T02:16:50.853Z,13.11
2018-07-08T02:18:50.213Z,13.09
2018-07-08T02:20:50.444Z,13.07
2018-07-08T02:22:50.602Z,13.07
2018-07-08T02:24:50.765Z,13.03
2018-07-08T02:26:50.291Z,13.01
2018-07-08T02:28:50.394Z,12.97
2018-07-08T02:30:50.544Z,12.94
2018-07-08T02:32:50.770Z,12.93
2018-07-08T02:34:50.311Z,12.91
2018-07-08T02:36:50.814Z,12.89
2018-07-08T02:38:49.941Z,12.84
2018-07-08T02:40:50.167Z,12.83
2018-07-08T02:42:50.475Z,12.85
2018-07-08T02:44:50.642Z,12.85
2018-07-08T02:46:50.073Z,12.83
2018-07-08T02:48:50.241Z,12.79
2018-07-08T02:50:50.401Z,12.79
2018-07-08T02:52:50.602Z,12.77
2018-07-08T02:54:50.718Z,12.75
2018-07-08T02:56:50.083Z,12.74
2018-07-08T02:58:50.250Z,12.76
2018-07-08T03:00:50.377Z,12.78
2018-07-08T03:02:50.483Z,12.80
2018-07-08T03:04:49.990Z,12.79
2018-07-08T03:06:50.333Z,12.78
2018-07-08T03:08:50.432Z,12.81
2018-07-08T03:10:50.616Z,12.81
2018-07-08T03:12:50.789Z,12.82
2018-07-08T03:14:49.992Z,12.82
2018-07-08T03:16:50.192Z,12.84
2018-07-08T03:18:50.701Z,12.88
2018-07-08T03:20:50.869Z,12.90
2018-07-08T03:22:50.163Z,12.91
2018-07-08T03:24:50.327Z,12.90
2018-07-08T03:26:50.675Z,12.89
2018-07-08T03:28:49.923Z,12.85
2018-07-08T03:30:50.059Z,12.85
2018-07-08T03:32:50.249Z,12.83
2018-07-08T03:34:50.553Z,12.81
2018-07-08T03:36:50.838Z,12.81
2018-07-08T03:38:49.978Z,12.79
2018-07-08T03:40:50.122Z,12.75
2018-07-08T03:42:50.451Z,12.73
2018-07-08T03:44:50.555Z,12.71
2018-07-08T03:46:49.877Z,12.71
2018-07-08T03:48:50.058Z,12.68
2018-07-08T03:50:50.251Z,12.67
2018-07-08T03:52:50.411Z,12.65
2018-07-08T03:54:50.620Z,12.61
2018-07-08T03:56:50.043Z,12.59
2018-07-08T03:58:50.239Z,12.59
2018-07-08T04:00:50.366Z,12.60
2018-07-08T04:02:50.498Z,12.62
2018-07-08T04:04:50.018Z,12.63
2018-07-08T04:06:50.628Z,12.63
2018-07-08T04:08:50.807Z,12.63
2018-07-08T04:10:49.965Z,12.67
2018-07-08T04:12:50.181Z,12.69
2018-07-08T04:14:50.351Z,12.73
2018-07-08T04:16:50.687Z,12.77
2018-07-08T04:18:49.894Z,12.87
2018-07-08T04:20:50.060Z,13.02
2018-07-08T04:22:50.179Z,13.10
2018-07-08T04:24:50.439Z,13.21
2018-07-08T04:26:50.710Z,13.27
2018-07-08T04:28:50.023Z,13.38
2018-07-08T04:30:50.122Z,13.42
2018-07-08T04:32:50.213Z,13.47
2018-07-08T04:34:50.743Z,13.52
2018-07-08T04:36:50.050Z,13.57
2018-07-08T04:38:50.216Z,13.65
2018-07-08T04:40:50.373Z,13.73
2018-07-08T04:42:50.489Z,13.76
2018-07-08T04:44:50.619Z,13.80
2018-07-08T04:46:49.945Z,13.83
2018-07-08T04:48:50.093Z,13.86
2018-07-08T04:50:50.418Z,13.86
2018-07-08T04:52:50.603Z,13.89
2018-07-08T04:54:49.925Z,13.91
2018-07-08T04:56:50.304Z,13.94
2018-07-08T04:58:50.353Z,14.00
2018-07-08T05:00:50.773Z,14.03
2018-07-08T05:02:50.043Z,14.05
2018-07-08T05:04:50.576Z,14.09
2018-07-08T05:06:50.848Z,14.14
2018-07-08T05:08:49.949Z,14.18
2018-07-08T05:10:50.177Z,14.21
2018-07-08T05:12:50.356Z,14.35
2018-07-08T05:14:50.511Z,14.45
2018-07-08T05:16:50.756Z,14.50
2018-07-08T05:18:50.868Z,14.56
2018-07-08T05:20:50.072Z,14.70
2018-07-08T05:22:50.227Z,14.86
2018-07-08T05:24:50.333Z,14.94
2018-07-08T05:26:50.756Z,15.10
2018-07-08T05:28:49.888Z,15.19
2018-07-08T05:30:50.172Z,15.24
2018-07-08T05:32:50.336Z,15.32
2018-07-08T05:34:50.893Z,15.32
2018-07-08T05:36:50.793Z,15.36
2018-07-08T05:38:50.037Z,15.36
2018-07-08T05:40:50.183Z,15.38
2018-07-08T05:42:50.324Z,15.39
2018-07-08T05:44:50.466Z,15.52
2018-07-08T05:46:50.783Z,15.62
2018-07-08T05:48:49.999Z,15.79
2018-07-08T05:50:50.343Z,15.84
2018-07-08T05:52:50.510Z,15.96
2018-07-08T05:54:49.895Z,16.02
2018-07-08T05:56:50.455Z,16.12
2018-07-08T05:58:50.583Z,16.15
2018-07-08T06:00:50.810Z,16.17
2018-07-08T06:02:49.984Z,16.17
2018-07-08T06:04:50.440Z,16.24
2018-07-08T06:06:50.891Z,16.22
2018-07-08T06:08:50.179Z,16.23
2018-07-08T06:10:50.419Z,16.26
2018-07-08T06:12:50.601Z,16.25
2018-07-08T06:14:50.772Z,16.34
2018-07-08T06:16:50.244Z,16.37
2018-07-08T06:18:50.586Z,16.34
2018-07-08T06:20:49.906Z,16.42
2018-07-08T06:22:50.203Z,16.50
2018-07-08T06:24:50.505Z,16.52
2018-07-08T06:26:49.936Z,16.52
2018-07-08T06:28:50.078Z,16.65
2018-07-08T06:30:50.248Z,16.68
2018-07-08T06:32:50.412Z,16.72
2018-07-08T06:34:50.815Z,16.75
2018-07-08T06:36:50.264Z,16.75
2018-07-08T06:38:50.441Z,16.68
2018-07-08T06:40:50.651Z,16.68
2018-07-08T06:42:50.787Z,16.68
2018-07-08T06:44:50.145Z,16.72
2018-07-08T06:46:50.478Z,16.75
2018-07-08T06:48:50.632Z,16.77
2018-07-08T06:50:50.843Z,16.85
2018-07-08T06:52:50.240Z,16.90
2018-07-08T06:54:50.492Z,16.97
2018-07-08T06:56:50.796Z,17.05
2018-07-08T06:58:49.947Z,17.09
2018-07-08T07:00:50.197Z,17.26
2018-07-08T07:02:50.458Z,17.35
2018-07-08T07:04:49.888Z,17.55
2018-07-08T07:06:50.807Z,17.55
2018-07-08T07:08:50.269Z,17.86
2018-07-08T07:10:50.468Z,17.86
2018-07-08T07:12:50.640Z,18.00
2018-07-08T07:14:50.764Z,18.06
2018-07-08T07:16:50.123Z,18.21
2018-07-08T07:18:50.244Z,18.29
2018-07-08T07:20:50.494Z,18.33
2018-07-08T07:22:50.633Z,18.37
2018-07-08T07:24:50.806Z,18.25
2018-07-08T07:26:50.101Z,18.29
2018-07-08T07:28:50.266Z,18.40
2018-07-08T07:30:50.459Z,18.55
2018-07-08T07:32:50.681Z,18.60
2018-07-08T07:34:50.260Z,18.66
2018-07-08T07:36:50.542Z,18.79
2018-07-08T07:38:50.737Z,18.94
2018-07-08T07:40:49.909Z,19.00
2018-07-08T07:42:50.051Z,19.1
2018-07-08T07:44:50.239Z,19.2
2018-07-08T07:46:50.561Z,19.3
2018-07-08T07:48:50.661Z,19.3
2018-07-08T07:50:50.780Z,19.3
2018-07-08T07:52:50.054Z,19.4
2018-07-08T07:54:50.235Z,19.5
2018-07-08T07:56:50.534Z,19.6
2018-07-08T07:58:50.701Z,19.6
2018-07-08T08:00:50.014Z,19.6
2018-07-08T08:02:50.204Z,19.7
2018-07-08T08:04:50.631Z,19.8
2018-07-08T08:06:49.985Z,19.8
2018-07-08T08:08:50.115Z,19.8
2018-07-08T08:10:50.955Z,19.9
2018-07-08T08:12:50.285Z,20.0
2018-07-08T08:14:50.434Z,20.0
2018-07-08T08:16:50.795Z,20.0
2018-07-08T08:18:49.956Z,20.1
2018-07-08T08:20:50.070Z,20.12
2018-07-08T08:22:50.198Z,20.2
2018-07-08T08:24:50.479Z,20.2
2018-07-08T08:26:51.465Z,20.2
2018-07-08T08:28:50.724Z,20.3
2018-07-08T08:30:49.942Z,20.4
2018-07-08T08:32:50.981Z,20.4
2018-07-08T08:34:50.675Z,20.4
2018-07-08T08:36:49.946Z,20.4
2018-07-08T08:38:50.185Z,20.5
2018-07-08T08:40:50.319Z,20.5
2018-07-08T08:42:50.571Z,20.6
2018-07-08T08:44:50.798Z,20.6
2018-07-08T08:46:50.197Z,20.7
2018-07-08T08:48:50.334Z,20.7
2018-07-08T08:50:50.516Z,20.7
2018-07-08T08:52:49.947Z,20.8
2018-07-08T08:54:50.154Z,20.8
2018-07-08T08:56:50.548Z,20.9
2018-07-08T08:58:50.783Z,20.9
2018-07-08T09:00:49.999Z,20.9
2018-07-08T09:02:50.198Z,21.0
2018-07-08T09:04:50.711Z,21.1
2018-07-08T09:06:50.145Z,21.1
2018-07-08T09:08:50.256Z,21.1
2018-07-08T09:10:50.845Z,21.2
2018-07-08T09:12:50.220Z,21.2
2018-07-08T09:14:50.339Z,21.2
2018-07-08T09:16:50.682Z,21.3
2018-07-08T09:18:49.988Z,21.3
2018-07-08T09:20:50.165Z,21.4
2018-07-08T09:22:50.321Z,21.4
2018-07-08T09:24:50.488Z,21.4
2018-07-08T09:26:50.871Z,21.4
2018-07-08T09:28:50.062Z,21.6
2018-07-08T09:30:50.301Z,21.6
2018-07-08T09:32:50.728Z,21.6
2018-07-08T09:34:50.096Z,21.7
2018-07-08T09:36:50.410Z,21.8
2018-07-08T09:38:51.386Z,21.8
2018-07-08T09:40:49.918Z,21.9
2018-07-08T09:42:50.097Z,21.9
2018-07-08T09:44:50.253Z,21.9
2018-07-08T09:46:50.630Z,22.0
2018-07-08T09:48:49.882Z,22.0
2018-07-08T09:50:50.191Z,22.1
2018-07-08T09:52:50.363Z,22.1
2018-07-08T09:54:50.501Z,22.1
2018-07-08T09:56:50.816Z,22.2
2018-07-08T09:58:49.984Z,22.3
2018-07-08T10:00:50.096Z,22.3
2018-07-08T10:02:50.325Z,22.3
2018-07-08T10:04:51.138Z,22.4
2018-07-08T10:06:50.679Z,22.5
2018-07-08T10:08:50.838Z,22.5
2018-07-08T10:10:50.318Z,22.5
2018-07-08T10:12:50.706Z,22.6
2018-07-08T10:14:50.152Z,22.6
2018-07-08T10:16:50.472Z,22.7
2018-07-08T10:18:50.941Z,22.8
2018-07-08T10:20:50.397Z,22.8
2018-07-08T10:22:50.581Z,22.8
2018-07-08T10:24:50.383Z,22.9
2018-07-08T10:26:50.381Z,22.9
2018-07-08T10:28:50.648Z,22.9
2018-07-08T10:30:49.988Z,22.9
2018-07-08T10:32:50.211Z,23.0
2018-07-08T10:34:50.552Z,23.1
2018-07-08T10:36:49.901Z,23.1
2018-07-08T10:38:50.179Z,23.2
2018-07-08T10:40:50.395Z,23.2
2018-07-08T10:42:50.602Z,23.2
2018-07-08T10:44:50.721Z,23.3
2018-07-08T10:46:50.071Z,23.3
2018-07-08T10:48:50.152Z,23.4
2018-07-08T10:50:50.402Z,23.4
2018-07-08T10:52:50.581Z,23.4
2018-07-08T10:54:50.801Z,23.5
2018-07-08T10:56:50.127Z,23.5
2018-07-08T10:58:50.236Z,23.5
2018-07-08T11:00:50.440Z,23.6
2018-07-08T11:02:50.593Z,23.6
2018-07-08T11:04:49.942Z,23.7
2018-07-08T11:06:50.286Z,23.8
2018-07-08T11:08:50.445Z,23.8
2018-07-08T11:10:51.173Z,23.8
2018-07-08T11:12:50.345Z,23.8
2018-07-08T11:14:50.535Z,23.9
2018-07-08T11:16:50.814Z,23.9
2018-07-08T11:18:49.999Z,23.9
2018-07-08T11:20:50.433Z,24.0
2018-07-08T11:22:50.696Z,24.0
2018-07-08T11:24:49.999Z,24.1
2018-07-08T11:26:50.321Z,24.1
2018-07-08T11:28:50.622Z,24.1
2018-07-08T11:30:50.743Z,24.2
2018-07-08T11:32:50.080Z,24.3
2018-07-08T11:34:50.463Z,24.3
2018-07-08T11:36:50.690Z,24.3
2018-07-08T11:38:49.963Z,24.3
2018-07-08T11:40:50.106Z,24.3
2018-07-08T11:42:50.482Z,24.3
2018-07-08T11:44:50.732Z,24.3
2018-07-08T11:46:50.133Z,24.3
2018-07-08T11:48:50.251Z,24.3
2018-07-08T11:50:50.387Z,24.4
2018-07-08T11:52:50.582Z,24.4
2018-07-08T11:54:50.750Z,24.5
2018-07-08T11:56:50.080Z,24.5
2018-07-08T11:58:50.274Z,24.5
2018-07-08T12:00:50.400Z,24.6
2018-07-08T12:02:50.558Z,24.7
2018-07-08T12:04:50.126Z,24.8
2018-07-08T12:06:50.390Z,24.8
2018-07-08T12:08:50.811Z,24.9
2018-07-08T12:10:50.092Z,25.0
2018-07-08T12:12:50.335Z,25.0
2018-07-08T12:14:50.402Z,25.0
2018-07-08T12:16:50.698Z,25.1
2018-07-08T12:18:50.804Z,25.1
2018-07-08T12:20:50.064Z,25.2
2018-07-08T12:22:50.174Z,25.2
2018-07-08T12:24:50.277Z,25.2
2018-07-08T12:26:50.509Z,25.2
2018-07-08T12:28:50.597Z,25.2
2018-07-08T12:30:50.829Z,25.3
2018-07-08T12:32:49.964Z,25.2
2018-07-08T12:34:50.252Z,25.2
2018-07-08T12:36:51.020Z,25.2
2018-07-08T12:38:50.242Z,25.1
2018-07-08T12:40:50.432Z,25.1
2018-07-08T12:42:50.510Z,25.1
2018-07-08T12:44:51.405Z,25.1
2018-07-08T12:46:49.915Z,25.1
2018-07-08T12:48:50.034Z,25.2
2018-07-08T12:50:50.199Z,25.2
2018-07-08T12:52:50.303Z,25.2
2018-07-08T12:54:50.353Z,25.2
2018-07-08T12:56:50.654Z,25.3
2018-07-08T12:58:50.921Z,25.3
2018-07-08T13:00:50.170Z,25.3
2018-07-08T13:02:50.247Z,25.3
2018-07-08T13:04:50.666Z,25.4
2018-07-08T13:06:50.043Z,25.4
2018-07-08T13:08:50.183Z,25.5
2018-07-08T13:10:50.521Z,25.5
2018-07-08T13:12:50.662Z,25.6
2018-07-08T13:14:50.759Z,25.6
2018-07-08T13:16:50.099Z,25.6
2018-07-08T13:18:50.374Z,25.6
2018-07-08T13:20:50.505Z,25.6
2018-07-08T13:22:50.773Z,25.7
2018-07-08T13:24:49.976Z,25.7
2018-07-08T13:26:50.286Z,25.7
2018-07-08T13:28:50.411Z,25.7
2018-07-08T13:30:50.563Z,25.8
2018-07-08T13:32:50.670Z,25.8
2018-07-08T13:34:50.115Z,25.9
2018-07-08T13:36:50.493Z,25.9
2018-07-08T13:38:51.024Z,26.0
2018-07-08T13:40:50.323Z,26.0
2018-07-08T13:42:50.504Z,26.0
2018-07-08T13:44:50.700Z,26.1
2018-07-08T13:46:49.982Z,26.1
2018-07-08T13:48:50.054Z,26.1
2018-07-08T13:50:50.219Z,26.1
2018-07-08T13:52:50.526Z,26.1
2018-07-08T13:54:50.619Z,26.1
2018-07-08T13:56:49.923Z,26.1
2018-07-08T13:58:50.038Z,26.1
2018-07-08T14:00:50.279Z,26.1
2018-07-08T14:02:50.402Z,26.2
2018-07-08T14:04:50.677Z,26.2
2018-07-08T14:06:49.987Z,26.2
2018-07-08T14:08:50.111Z,26.3
2018-07-08T14:10:50.459Z,26.3
2018-07-08T14:12:50.779Z,26.3
2018-07-08T14:14:50.242Z,26.4
2018-07-08T14:16:50.568Z,26.4
2018-07-08T14:18:50.660Z,26.4
2018-07-08T14:20:51.556Z,26.5
2018-07-08T14:22:50.053Z,26.6
2018-07-08T14:24:50.128Z,26.6
2018-07-08T14:26:50.480Z,26.6
2018-07-08T14:28:50.578Z,26.6
2018-07-08T14:30:50.715Z,26.6
2018-07-08T14:32:49.991Z,26.6
2018-07-08T14:34:51.014Z,26.6
2018-07-08T14:36:50.407Z,26.6
2018-07-08T14:38:50.578Z,26.7
2018-07-08T14:40:51.260Z,26.7
2018-07-08T14:42:50.348Z,26.8
2018-07-08T14:44:50.490Z,26.8
2018-07-08T14:46:50.752Z,26.8
2018-07-08T14:48:49.951Z,26.8
2018-07-08T14:50:50.128Z,26.9
2018-07-08T14:52:50.278Z,27.0
2018-07-08T14:54:50.398Z,27.1
2018-07-08T14:56:50.713Z,27.1
2018-07-08T14:58:50.842Z,27.2
2018-07-08T15:00:50.053Z,27.2
2018-07-08T15:02:50.288Z,27.2
2018-07-08T15:04:51.236Z,27.2
2018-07-08T15:06:50.731Z,27.3
2018-07-08T15:08:49.900Z,27.4
2018-07-08T15:10:50.208Z,27.4
2018-07-08T15:12:50.420Z,27.4
2018-07-08T15:14:50.508Z,27.5
2018-07-08T15:16:50.798Z,27.5
2018-07-08T15:18:49.878Z,27.5
2018-07-08T15:20:50.253Z,27.6
2018-07-08T15:22:50.637Z,27.6
2018-07-08T15:24:50.799Z,27.6
2018-07-08T15:26:50.149Z,27.7
2018-07-08T15:28:50.277Z,27.8
2018-07-08T15:30:50.625Z,27.8
2018-07-08T15:32:51.048Z,27.8
2018-07-08T15:34:50.460Z,27.8
2018-07-08T15:36:50.901Z,27.8
2018-07-08T15:38:50.106Z,27.8
2018-07-08T15:40:50.266Z,27.9
2018-07-08T15:42:50.381Z,27.9
2018-07-08T15:44:50.527Z,27.9
2018-07-08T15:46:51.056Z,27.9
2018-07-08T15:48:50.342Z,28.0
2018-07-08T15:50:50.624Z,28.0
2018-07-08T15:52:49.922Z,28.0
2018-07-08T15:54:50.196Z,28.1
2018-07-08T15:56:50.514Z,28.2
2018-07-08T15:58:50.670Z,28.2
2018-07-08T16:00:50.913Z,28.3
2018-07-08T16:02:50.077Z,28.3
2018-07-08T16:04:50.773Z,28.4
2018-07-08T16:06:50.150Z,28.4
2018-07-08T16:08:50.299Z,28.4
2018-07-08T16:10:50.421Z,28.5
2018-07-08T16:12:50.615Z,28.5
2018-07-08T16:14:50.808Z,28.5
2018-07-08T16:16:50.159Z,28.5
2018-07-08T16:18:51.035Z,28.5
2018-07-08T16:20:50.294Z,28.5
2018-07-08T16:22:50.443Z,28.6
2018-07-08T16:24:51.539Z,28.6
2018-07-08T16:26:50.154Z,28.5
2018-07-08T16:28:50.339Z,28.5
2018-07-08T16:30:50.461Z,28.4
2018-07-08T16:32:50.597Z,28.4
2018-07-08T16:34:49.970Z,28.4
2018-07-08T16:36:50.236Z,28.4
2018-07-08T16:38:50.542Z,28.4
2018-07-08T16:40:50.603Z,28.4
2018-07-08T16:42:50.836Z,28.4
2018-07-08T16:44:49.986Z,28.3
2018-07-08T16:46:50.353Z,28.20
2018-07-08T16:48:50.490Z,28.14
2018-07-08T16:50:50.586Z,28.00
2018-07-08T16:52:50.784Z,27.87
2018-07-08T16:54:49.889Z,27.81
2018-07-08T16:56:50.134Z,28.0
2018-07-08T16:58:50.289Z,28.0
2018-07-08T17:00:50.445Z,28.0
2018-07-08T17:02:50.652Z,28.2
2018-07-08T17:04:49.946Z,28.3
2018-07-08T17:06:50.271Z,28.3
2018-07-08T17:08:50.438Z,28.4
2018-07-08T17:10:50.768Z,28.4
2018-07-08T17:12:49.905Z,28.5
2018-07-08T17:14:50.072Z,28.5
2018-07-08T17:16:50.280Z,28.5
2018-07-08T17:18:50.422Z,28.4
2018-07-08T17:20:50.498Z,28.4
2018-07-08T17:22:50.819Z,28.2
2018-07-08T17:24:49.971Z,28.2
2018-07-08T17:26:50.305Z,28.0
2018-07-08T17:28:50.424Z,27.9
2018-07-08T17:30:50.513Z,27.75
2018-07-08T17:32:50.905Z,27.62
2018-07-08T17:34:50.472Z,27.22
2018-07-08T17:36:50.699Z,26.96
2018-07-08T17:38:50.821Z,26.89
2018-07-08T17:40:50.259Z,26.67
2018-07-08T17:42:50.385Z,26.55
2018-07-08T17:44:50.505Z,26.50
2018-07-08T17:46:50.766Z,26.50
2018-07-08T17:48:49.924Z,26.53
2018-07-08T17:50:50.175Z,26.52
2018-07-08T17:52:50.656Z,26.40
2018-07-08T17:54:50.146Z,26.26
2018-07-08T17:56:50.394Z,26.15
2018-07-08T17:58:50.459Z,26.04
2018-07-08T18:00:50.597Z,25.90
2018-07-08T18:02:50.794Z,25.82
2018-07-08T18:04:50.318Z,25.78
2018-07-08T18:06:50.589Z,25.73
2018-07-08T18:08:50.933Z,25.68
2018-07-08T18:10:50.163Z,25.60
2018-07-08T18:12:50.296Z,25.55
2018-07-08T18:14:50.528Z,25.50
2018-07-08T18:16:50.784Z,25.44
2018-07-08T18:18:49.994Z,25.39
2018-07-08T18:20:50.107Z,25.35
2018-07-08T18:22:50.433Z,25.32
2018-07-08T18:24:50.591Z,25.33
2018-07-08T18:26:49.988Z,25.36
2018-07-08T18:28:50.129Z,25.30
2018-07-08T18:30:50.273Z,25.25
2018-07-08T18:32:50.455Z,25.23
2018-07-08T18:34:50.064Z,25.17
2018-07-08T18:36:50.470Z,25.14
2018-07-08T18:38:50.713Z,25.09
2018-07-08T18:40:49.890Z,24.90
2018-07-08T18:42:50.025Z,24.75
2018-07-08T18:44:50.189Z,24.61
2018-07-08T18:46:50.534Z,24.56
2018-07-08T18:48:50.861Z,24.39
2018-07-08T18:50:50.012Z,24.33
2018-07-08T18:52:50.178Z,24.16
2018-07-08T18:54:50.376Z,24.09
2018-07-08T18:56:50.686Z,23.91
2018-07-08T18:58:49.873Z,23.79
2018-07-08T19:00:49.974Z,23.71
2018-07-08T19:02:50.163Z,23.57
2018-07-08T19:04:50.655Z,23.46
2018-07-08T19:06:49.996Z,23.31
2018-07-08T19:08:50.178Z,23.17
2018-07-08T19:10:50.341Z,23.07
2018-07-08T19:12:50.504Z,22.95
2018-07-08T19:14:50.760Z,22.88
2018-07-08T19:16:50.083Z,22.83
2018-07-08T19:18:50.160Z,22.78
2018-07-08T19:20:50.238Z,22.74
2018-07-08T19:22:50.398Z,22.69
2018-07-08T19:24:50.559Z,22.62
2018-07-08T19:26:49.876Z,22.54
2018-07-08T19:28:49.990Z,22.47
2018-07-08T19:30:50.203Z,22.44
2018-07-08T19:32:50.368Z,22.41
2018-07-08T19:34:49.937Z,22.38
2018-07-08T19:36:50.250Z,22.35
2018-07-08T19:38:50.419Z,22.31
2018-07-08T19:40:50.553Z,22.27
2018-07-08T19:42:49.925Z,22.18
2018-07-08T19:44:50.147Z,22.08
2018-07-08T19:46:50.527Z,22.02
2018-07-08T19:48:50.728Z,21.88
2018-07-08T19:50:49.862Z,21.79
2018-07-08T19:52:50.141Z,21.74
2018-07-08T19:54:50.360Z,21.67
2018-07-08T19:56:50.671Z,21.59
2018-07-08T19:58:50.876Z,21.46
2018-07-08T20:00:50.139Z,21.39
2018-07-08T20:02:50.269Z,21.26
2018-07-08T20:04:50.691Z,21.15
2018-07-08T20:06:50.080Z,21.05
2018-07-08T20:08:50.344Z,20.99
2018-07-08T20:10:50.505Z,20.90
2018-07-08T20:12:50.733Z,20.90
2018-07-08T20:14:49.953Z,20.77
2018-07-08T20:16:50.236Z,20.72
2018-07-08T20:18:50.500Z,20.62
2018-07-08T20:20:51.165Z,20.53
2018-07-08T20:22:50.396Z,20.48
2018-07-08T20:24:50.503Z,20.38
2018-07-08T20:26:49.965Z,20.35
2018-07-08T20:28:50.165Z,20.25
2018-07-08T20:30:50.377Z,20.17
2018-07-08T20:32:50.673Z,20.09
2018-07-08T20:34:49.902Z,20.01
2018-07-08T20:36:50.178Z,20.00
2018-07-08T20:38:50.317Z,20.02
2018-07-08T20:40:50.438Z,19.96
2018-07-08T20:42:50.627Z,19.88
2018-07-08T20:44:50.736Z,19.81
2018-07-08T20:46:49.973Z,19.73
2018-07-08T20:48:50.468Z,19.64
2018-07-08T20:50:50.673Z,19.56
2018-07-08T20:52:50.829Z,19.47
2018-07-08T20:54:50.138Z,19.40
2018-07-08T20:56:50.441Z,19.38
2018-07-08T20:58:50.615Z,19.27
2018-07-08T21:00:50.770Z,19.22
2018-07-08T21:02:49.929Z,19.15
2018-07-08T21:04:50.226Z,19.11
2018-07-08T21:06:50.574Z,19.06
2018-07-08T21:08:50.754Z,19.03
2018-07-08T21:10:50.016Z,18.97
2018-07-08T21:12:50.283Z,18.92
2018-07-08T21:14:50.401Z,18.89
2018-07-08T21:16:50.816Z,18.85
2018-07-08T21:18:50.461Z,18.81
2018-07-08T21:20:50.693Z,18.76
2018-07-08T21:22:49.921Z,18.70
2018-07-08T21:24:50.940Z,18.68
2018-07-08T21:26:50.342Z,18.67
2018-07-08T21:28:50.563Z,18.64
2018-07-08T21:30:50.705Z,18.65
2018-07-08T21:32:49.994Z,18.69
2018-07-08T21:34:50.497Z,18.69
2018-07-08T21:36:51.151Z,18.72
2018-07-08T21:38:50.459Z,18.70
2018-07-08T21:40:50.582Z,18.69
2018-07-08T21:42:50.678Z,18.69
2018-07-08T21:44:50.838Z,18.71
2018-07-08T21:46:50.179Z,18.70
2018-07-08T21:48:50.333Z,18.68
2018-07-08T21:50:50.421Z,18.66
2018-07-08T21:52:50.690Z,18.65
2018-07-08T21:54:49.953Z,18.63
2018-07-08T21:56:50.351Z,18.64
2018-07-08T21:58:50.437Z,18.64
2018-07-08T22:00:50.681Z,18.65
2018-07-08T22:02:50.001Z,18.67
2018-07-08T22:04:50.400Z,18.70
2018-07-08T22:06:49.926Z,18.70
2018-07-08T22:08:50.122Z,18.71
2018-07-08T22:10:50.300Z,18.72
2018-07-08T22:12:50.488Z,18.73
2018-07-08T22:14:50.861Z,18.73
2018-07-08T22:16:50.309Z,18.69
2018-07-08T22:18:50.460Z,18.68
2018-07-08T22:20:50.535Z,18.68
2018-07-08T22:22:50.870Z,18.67
2018-07-08T22:24:50.046Z,18.69
2018-07-08T22:26:50.331Z,18.68
2018-07-08T22:28:50.543Z,18.64
2018-07-08T22:30:50.725Z,18.61
2018-07-08T22:32:49.922Z,18.55
2018-07-08T22:34:50.256Z,18.51
2018-07-08T22:36:50.526Z,18.48
2018-07-08T22:38:50.703Z,18.46
2018-07-08T22:40:49.970Z,18.44
2018-07-08T22:42:50.308Z,18.43
2018-07-08T22:44:50.387Z,18.40
2018-07-08T22:46:50.804Z,18.38
2018-07-08T22:48:49.884Z,18.38
2018-07-08T22:50:50.117Z,18.35
2018-07-08T22:52:50.297Z,18.32
2018-07-08T22:54:50.399Z,18.28
2018-07-08T22:56:50.783Z,18.25
2018-07-08T22:58:49.905Z,18.22
2018-07-08T23:00:50.064Z,18.18
2018-07-08T23:02:50.246Z,18.12
2018-07-08T23:04:50.711Z,18.07
2018-07-08T23:06:50.047Z,18.02
2018-07-08T23:08:50.231Z,17.94
2018-07-08T23:10:50.370Z,17.85
2018-07-08T23:12:50.500Z,17.78
2018-07-08T23:14:50.691Z,17.70
2018-07-08T23:16:49.989Z,17.65
2018-07-08T23:18:50.221Z,17.54
2018-07-08T23:20:50.389Z,17.50
2018-07-08T23:22:50.523Z,17.39
2018-07-08T23:24:50.481Z,17.35
2018-07-08T23:26:50.734Z,17.30
2018-07-08T23:28:49.944Z,17.23
2018-07-08T23:30:50.107Z,17.14
2018-07-08T23:32:50.304Z,17.11
2018-07-08T23:34:49.933Z,17.07
2018-07-08T23:36:50.212Z,17.02
2018-07-08T23:38:50.288Z,16.98
2018-07-08T23:40:50.465Z,16.92
2018-07-08T23:42:50.591Z,16.86
2018-07-08T23:44:50.724Z,16.82
2018-07-08T23:46:50.166Z,16.77
2018-07-08T23:48:50.256Z,16.70
2018-07-08T23:50:50.414Z,16.70
2018-07-08T23:52:50.566Z,16.59
2018-07-08T23:54:50.665Z,16.57
2018-07-08T23:56:50.197Z,16.51
2018-07-08T23:58:50.356Z,16.47
